sensor_id;sensor_type;location;lat;lon;timestamp;P1;durP1;ratioP1;P2;durP2;ratioP2
20067;SDS011;10194;50.824;7.134;2022-09-17T00:01:03;499.20;;;458.20;;
20067;SDS011;10194;50.824;7.134;2022-09-17T00:03:30;505.00;;;462.73;;
20067;SDS011;10194;50.824;7.134;2022-09-17T00:06:02;500.10;;;458.80;;
20067;SDS011;10194;50.824;7.134;2022-09-17T00:08:31;500.30;;;459.27;;
20067;SDS011;10194;50.824;7.134;2022-09-17T00:11:04;495.70;;;454.53;;
20067;SDS011;10194;50.824;7.134;2022-09-17T00:13:38;505.27;;;463.57;;
20067;SDS011;10194;50.824;7.134;2022-09-17T00:16:05;511.20;;;470.10;;
20067;SDS011;10194;50.824;7.134;2022-09-17T00:18:31;506.27;;;464.77;;
20067;SDS011;10194;50.824;7.134;2022-09-17T00:21:00;499.63;;;458.30;;
20067;SDS011;10194;50.824;7.134;2022-09-17T00:23:27;496.63;;;455.30;;
20067;SDS011;10194;50.824;7.134;2022-09-17T00:25:53;500.37;;;459.03;;
20067;SDS011;10194;50.824;7.134;2022-09-17T00:28:19;496.87;;;455.93;;
20067;SDS011;10194;50.824;7.134;2022-09-17T00:30:45;496.20;;;455.37;;
20067;SDS011;10194;50.824;7.134;2022-09-17T00:33:12;497.67;;;456.87;;
20067;SDS011;10194;50.824;7.134;2022-09-17T00:35:41;503.97;;;462.23;;
20067;SDS011;10194;50.824;7.134;2022-09-17T00:38:08;499.73;;;458.40;;
20067;SDS011;10194;50.824;7.134;2022-09-17T00:40:34;501.00;;;459.33;;
20067;SDS011;10194;50.824;7.134;2022-09-17T00:43:01;501.73;;;460.30;;
20067;SDS011;10194;50.824;7.134;2022-09-17T00:45:28;494.77;;;452.97;;
20067;SDS011;10194;50.824;7.134;2022-09-17T00:47:57;496.47;;;454.77;;
20067;SDS011;10194;50.824;7.134;2022-09-17T00:50:33;496.83;;;455.17;;
20067;SDS011;10194;50.824;7.134;2022-09-17T00:53:13;493.80;;;452.47;;
20067;SDS011;10194;50.824;7.134;2022-09-17T00:55:44;499.27;;;457.60;;
20067;SDS011;10194;50.824;7.134;2022-09-17T00:58:21;501.17;;;459.27;;
20067;SDS011;10194;50.824;7.134;2022-09-17T01:00:48;498.17;;;456.73;;
20067;SDS011;10194;50.824;7.134;2022-09-17T01:03:14;499.70;;;457.93;;
20067;SDS011;10194;50.824;7.134;2022-09-17T01:05:43;499.33;;;458.00;;
20067;SDS011;10194;50.824;7.134;2022-09-17T01:11:44;498.83;;;456.87;;
20067;SDS011;10194;50.824;7.134;2022-09-17T01:23:12;510.97;;;468.73;;
20067;SDS011;10194;50.824;7.134;2022-09-17T01:35:11;498.60;;;456.80;;
20067;SDS011;10194;50.824;7.134;2022-09-17T01:38:10;500.50;;;458.73;;
20067;SDS011;10194;50.824;7.134;2022-09-17T01:43:35;491.73;;;450.57;;
20067;SDS011;10194;50.824;7.134;2022-09-17T01:48:43;498.73;;;457.67;;
20067;SDS011;10194;50.824;7.134;2022-09-17T01:51:14;492.10;;;450.97;;
20067;SDS011;10194;50.824;7.134;2022-09-17T01:53:54;491.57;;;450.67;;
20067;SDS011;10194;50.824;7.134;2022-09-17T01:56:32;492.90;;;451.50;;
20067;SDS011;10194;50.824;7.134;2022-09-17T01:59:39;491.70;;;450.43;;
20067;SDS011;10194;50.824;7.134;2022-09-17T02:02:10;500.50;;;459.17;;
20067;SDS011;10194;50.824;7.134;2022-09-17T02:04:56;495.73;;;454.00;;
20067;SDS011;10194;50.824;7.134;2022-09-17T02:07:41;494.77;;;453.00;;
20067;SDS011;10194;50.824;7.134;2022-09-17T02:10:17;494.93;;;453.67;;
20067;SDS011;10194;50.824;7.134;2022-09-17T02:15:56;493.03;;;451.33;;
20067;SDS011;10194;50.824;7.134;2022-09-17T02:18:45;490.63;;;449.30;;
20067;SDS011;10194;50.824;7.134;2022-09-17T02:21:23;492.07;;;450.87;;
20067;SDS011;10194;50.824;7.134;2022-09-17T02:24:23;488.50;;;447.90;;
20067;SDS011;10194;50.824;7.134;2022-09-17T02:29:52;476.97;;;435.97;;
20067;SDS011;10194;50.824;7.134;2022-09-17T02:32:18;488.23;;;446.53;;
20067;SDS011;10194;50.824;7.134;2022-09-17T02:34:44;490.23;;;448.83;;
20067;SDS011;10194;50.824;7.134;2022-09-17T02:37:11;487.67;;;446.67;;
20067;SDS011;10194;50.824;7.134;2022-09-17T02:39:37;488.00;;;447.00;;
20067;SDS011;10194;50.824;7.134;2022-09-17T02:45:13;481.27;;;440.40;;
20067;SDS011;10194;50.824;7.134;2022-09-17T02:57:23;488.13;;;446.53;;
20067;SDS011;10194;50.824;7.134;2022-09-17T03:00:14;493.60;;;451.87;;
20067;SDS011;10194;50.824;7.134;2022-09-17T03:02:47;489.53;;;447.50;;
20067;SDS011;10194;50.824;7.134;2022-09-17T03:05:37;488.90;;;447.50;;
20067;SDS011;10194;50.824;7.134;2022-09-17T03:08:07;486.73;;;445.83;;
20067;SDS011;10194;50.824;7.134;2022-09-17T03:10:38;477.87;;;437.20;;
20067;SDS011;10194;50.824;7.134;2022-09-17T03:13:05;481.97;;;440.90;;
20067;SDS011;10194;50.824;7.134;2022-09-17T03:15:31;486.77;;;445.27;;
20067;SDS011;10194;50.824;7.134;2022-09-17T03:17:57;486.60;;;445.63;;
20067;SDS011;10194;50.824;7.134;2022-09-17T03:20:23;482.70;;;441.77;;
20067;SDS011;10194;50.824;7.134;2022-09-17T03:22:50;483.73;;;442.00;;
20067;SDS011;10194;50.824;7.134;2022-09-17T03:25:16;481.37;;;440.27;;
20067;SDS011;10194;50.824;7.134;2022-09-17T03:27:42;481.77;;;441.07;;
20067;SDS011;10194;50.824;7.134;2022-09-17T03:30:07;484.83;;;444.20;;
20067;SDS011;10194;50.824;7.134;2022-09-17T03:32:34;480.17;;;438.80;;
20067;SDS011;10194;50.824;7.134;2022-09-17T03:35:00;484.27;;;443.50;;
20067;SDS011;10194;50.824;7.134;2022-09-17T03:37:25;487.63;;;446.87;;
20067;SDS011;10194;50.824;7.134;2022-09-17T03:39:51;483.77;;;442.90;;
20067;SDS011;10194;50.824;7.134;2022-09-17T03:42:17;485.43;;;444.57;;
20067;SDS011;10194;50.824;7.134;2022-09-17T03:44:43;485.97;;;445.60;;
20067;SDS011;10194;50.824;7.134;2022-09-17T03:47:08;485.63;;;444.43;;
20067;SDS011;10194;50.824;7.134;2022-09-17T03:49:36;489.67;;;448.43;;
20067;SDS011;10194;50.824;7.134;2022-09-17T03:52:02;479.27;;;438.17;;
20067;SDS011;10194;50.824;7.134;2022-09-17T03:54:27;482.93;;;442.20;;
20067;SDS011;10194;50.824;7.134;2022-09-17T03:56:53;481.27;;;440.73;;
20067;SDS011;10194;50.824;7.134;2022-09-17T03:59:19;488.37;;;447.37;;
20067;SDS011;10194;50.824;7.134;2022-09-17T04:01:45;483.20;;;442.33;;
20067;SDS011;10194;50.824;7.134;2022-09-17T04:04:10;479.27;;;438.73;;
20067;SDS011;10194;50.824;7.134;2022-09-17T04:06:36;482.37;;;440.67;;
20067;SDS011;10194;50.824;7.134;2022-09-17T04:09:02;484.00;;;443.17;;
20067;SDS011;10194;50.824;7.134;2022-09-17T04:11:29;483.97;;;442.63;;
20067;SDS011;10194;50.824;7.134;2022-09-17T04:13:55;486.43;;;445.97;;
20067;SDS011;10194;50.824;7.134;2022-09-17T04:16:20;488.70;;;447.77;;
20067;SDS011;10194;50.824;7.134;2022-09-17T04:18:46;488.77;;;447.33;;
20067;SDS011;10194;50.824;7.134;2022-09-17T04:21:12;492.43;;;451.50;;
20067;SDS011;10194;50.824;7.134;2022-09-17T04:23:38;484.20;;;442.57;;
20067;SDS011;10194;50.824;7.134;2022-09-17T04:26:03;483.23;;;442.73;;
20067;SDS011;10194;50.824;7.134;2022-09-17T04:28:29;482.57;;;441.60;;
20067;SDS011;10194;50.824;7.134;2022-09-17T04:30:55;487.97;;;446.83;;
20067;SDS011;10194;50.824;7.134;2022-09-17T04:33:21;485.97;;;444.97;;
20067;SDS011;10194;50.824;7.134;2022-09-17T04:35:47;489.50;;;448.60;;
20067;SDS011;10194;50.824;7.134;2022-09-17T04:38:13;485.60;;;444.77;;
20067;SDS011;10194;50.824;7.134;2022-09-17T04:40:42;483.27;;;441.40;;
20067;SDS011;10194;50.824;7.134;2022-09-17T04:43:08;481.07;;;439.97;;
20067;SDS011;10194;50.824;7.134;2022-09-17T04:45:35;482.33;;;441.30;;
20067;SDS011;10194;50.824;7.134;2022-09-17T04:48:01;478.70;;;437.73;;
20067;SDS011;10194;50.824;7.134;2022-09-17T04:50:28;483.70;;;442.60;;
20067;SDS011;10194;50.824;7.134;2022-09-17T04:52:54;480.57;;;439.20;;
20067;SDS011;10194;50.824;7.134;2022-09-17T04:55:20;485.37;;;443.90;;
20067;SDS011;10194;50.824;7.134;2022-09-17T04:57:49;478.53;;;437.43;;
20067;SDS011;10194;50.824;7.134;2022-09-17T05:00:16;486.40;;;445.27;;
20067;SDS011;10194;50.824;7.134;2022-09-17T05:02:45;483.23;;;441.63;;
20067;SDS011;10194;50.824;7.134;2022-09-17T05:05:14;480.40;;;438.83;;
20067;SDS011;10194;50.824;7.134;2022-09-17T05:07:41;480.43;;;439.17;;
20067;SDS011;10194;50.824;7.134;2022-09-17T05:10:07;476.17;;;435.03;;
20067;SDS011;10194;50.824;7.134;2022-09-17T05:12:35;475.37;;;434.40;;
20067;SDS011;10194;50.824;7.134;2022-09-17T05:15:01;482.40;;;441.40;;
20067;SDS011;10194;50.824;7.134;2022-09-17T05:17:27;478.03;;;437.20;;
20067;SDS011;10194;50.824;7.134;2022-09-17T05:19:53;482.27;;;441.23;;
20067;SDS011;10194;50.824;7.134;2022-09-17T05:22:19;480.40;;;439.07;;
20067;SDS011;10194;50.824;7.134;2022-09-17T05:24:45;481.77;;;440.87;;
20067;SDS011;10194;50.824;7.134;2022-09-17T05:27:11;484.67;;;443.07;;
20067;SDS011;10194;50.824;7.134;2022-09-17T05:29:37;479.30;;;438.83;;
20067;SDS011;10194;50.824;7.134;2022-09-17T05:32:03;480.10;;;439.30;;
20067;SDS011;10194;50.824;7.134;2022-09-17T05:34:30;479.23;;;438.37;;
20067;SDS011;10194;50.824;7.134;2022-09-17T05:36:56;479.50;;;438.63;;
20067;SDS011;10194;50.824;7.134;2022-09-17T05:39:22;480.87;;;439.97;;
20067;SDS011;10194;50.824;7.134;2022-09-17T05:41:50;474.87;;;433.60;;
20067;SDS011;10194;50.824;7.134;2022-09-17T05:44:19;474.23;;;433.30;;
20067;SDS011;10194;50.824;7.134;2022-09-17T05:46:46;481.07;;;440.20;;
20067;SDS011;10194;50.824;7.134;2022-09-17T05:49:12;477.53;;;436.93;;
20067;SDS011;10194;50.824;7.134;2022-09-17T05:51:39;478.33;;;437.67;;
20067;SDS011;10194;50.824;7.134;2022-09-17T05:54:08;476.73;;;435.97;;
20067;SDS011;10194;50.824;7.134;2022-09-17T05:56:34;476.43;;;436.03;;
20067;SDS011;10194;50.824;7.134;2022-09-17T05:59:00;480.30;;;439.40;;
20067;SDS011;10194;50.824;7.134;2022-09-17T06:01:26;481.23;;;440.40;;
20067;SDS011;10194;50.824;7.134;2022-09-17T06:03:51;478.33;;;437.97;;
20067;SDS011;10194;50.824;7.134;2022-09-17T06:06:17;487.70;;;446.70;;
20067;SDS011;10194;50.824;7.134;2022-09-17T06:08:43;479.40;;;438.77;;
20067;SDS011;10194;50.824;7.134;2022-09-17T06:11:09;481.37;;;440.40;;
20067;SDS011;10194;50.824;7.134;2022-09-17T06:13:35;486.07;;;445.13;;
20067;SDS011;10194;50.824;7.134;2022-09-17T06:16:01;481.70;;;440.90;;
20067;SDS011;10194;50.824;7.134;2022-09-17T06:18:28;485.63;;;444.63;;
20067;SDS011;10194;50.824;7.134;2022-09-17T06:20:56;485.43;;;444.87;;
20067;SDS011;10194;50.824;7.134;2022-09-17T06:23:24;483.67;;;442.63;;
20067;SDS011;10194;50.824;7.134;2022-09-17T06:25:54;481.30;;;441.03;;
20067;SDS011;10194;50.824;7.134;2022-09-17T06:28:23;487.07;;;446.53;;
20067;SDS011;10194;50.824;7.134;2022-09-17T06:30:50;482.67;;;441.73;;
20067;SDS011;10194;50.824;7.134;2022-09-17T06:33:21;489.10;;;447.77;;
20067;SDS011;10194;50.824;7.134;2022-09-17T06:35:48;486.57;;;445.60;;
20067;SDS011;10194;50.824;7.134;2022-09-17T06:38:20;481.27;;;440.57;;
20067;SDS011;10194;50.824;7.134;2022-09-17T06:40:50;484.80;;;444.13;;
20067;SDS011;10194;50.824;7.134;2022-09-17T06:43:16;484.90;;;443.80;;
20067;SDS011;10194;50.824;7.134;2022-09-17T06:45:42;481.97;;;441.07;;
20067;SDS011;10194;50.824;7.134;2022-09-17T06:48:08;483.50;;;442.77;;
20067;SDS011;10194;50.824;7.134;2022-09-17T06:50:34;490.20;;;449.10;;
20067;SDS011;10194;50.824;7.134;2022-09-17T06:53:00;486.83;;;445.77;;
20067;SDS011;10194;50.824;7.134;2022-09-17T06:55:25;490.70;;;449.27;;
20067;SDS011;10194;50.824;7.134;2022-09-17T06:57:52;488.23;;;447.40;;
20067;SDS011;10194;50.824;7.134;2022-09-17T07:00:18;487.60;;;446.43;;
20067;SDS011;10194;50.824;7.134;2022-09-17T07:02:53;488.37;;;446.87;;
20067;SDS011;10194;50.824;7.134;2022-09-17T07:05:23;482.30;;;441.70;;
20067;SDS011;10194;50.824;7.134;2022-09-17T07:07:50;489.57;;;447.87;;
20067;SDS011;10194;50.824;7.134;2022-09-17T07:10:16;486.63;;;445.67;;
20067;SDS011;10194;50.824;7.134;2022-09-17T07:12:42;481.00;;;440.10;;
20067;SDS011;10194;50.824;7.134;2022-09-17T07:15:08;483.17;;;442.53;;
20067;SDS011;10194;50.824;7.134;2022-09-17T07:17:35;488.57;;;447.03;;
20067;SDS011;10194;50.824;7.134;2022-09-17T07:20:07;486.40;;;445.47;;
20067;SDS011;10194;50.824;7.134;2022-09-17T07:22:34;487.17;;;445.73;;
20067;SDS011;10194;50.824;7.134;2022-09-17T07:25:01;487.33;;;445.87;;
20067;SDS011;10194;50.824;7.134;2022-09-17T07:27:28;492.00;;;450.97;;
20067;SDS011;10194;50.824;7.134;2022-09-17T07:29:54;490.97;;;449.93;;
20067;SDS011;10194;50.824;7.134;2022-09-17T07:32:20;492.80;;;450.97;;
20067;SDS011;10194;50.824;7.134;2022-09-17T07:34:47;491.93;;;450.83;;
20067;SDS011;10194;50.824;7.134;2022-09-17T07:37:14;490.73;;;449.33;;
20067;SDS011;10194;50.824;7.134;2022-09-17T07:39:40;489.23;;;447.53;;
20067;SDS011;10194;50.824;7.134;2022-09-17T07:42:07;490.77;;;449.37;;
20067;SDS011;10194;50.824;7.134;2022-09-17T07:44:33;486.17;;;445.27;;
20067;SDS011;10194;50.824;7.134;2022-09-17T07:46:59;486.77;;;445.13;;
20067;SDS011;10194;50.824;7.134;2022-09-17T07:49:24;485.43;;;444.23;;
20067;SDS011;10194;50.824;7.134;2022-09-17T07:51:50;484.63;;;443.63;;
20067;SDS011;10194;50.824;7.134;2022-09-17T07:54:16;483.03;;;442.03;;
20067;SDS011;10194;50.824;7.134;2022-09-17T07:56:42;478.10;;;437.00;;
20067;SDS011;10194;50.824;7.134;2022-09-17T07:59:09;478.60;;;437.77;;
20067;SDS011;10194;50.824;7.134;2022-09-17T08:01:34;487.47;;;446.00;;
20067;SDS011;10194;50.824;7.134;2022-09-17T08:04:00;480.07;;;439.13;;
20067;SDS011;10194;50.824;7.134;2022-09-17T08:06:27;490.47;;;448.67;;
20067;SDS011;10194;50.824;7.134;2022-09-17T08:08:54;488.27;;;446.47;;
20067;SDS011;10194;50.824;7.134;2022-09-17T08:11:23;484.60;;;443.07;;
20067;SDS011;10194;50.824;7.134;2022-09-17T08:13:52;480.43;;;439.57;;
20067;SDS011;10194;50.824;7.134;2022-09-17T08:16:19;474.50;;;434.07;;
20067;SDS011;10194;50.824;7.134;2022-09-17T08:18:46;469.17;;;429.00;;
20067;SDS011;10194;50.824;7.134;2022-09-17T08:21:14;466.80;;;426.80;;
20067;SDS011;10194;50.824;7.134;2022-09-17T08:23:42;464.73;;;425.03;;
20067;SDS011;10194;50.824;7.134;2022-09-17T08:26:11;467.77;;;427.87;;
20067;SDS011;10194;50.824;7.134;2022-09-17T08:28:46;467.07;;;427.00;;
20067;SDS011;10194;50.824;7.134;2022-09-17T08:31:18;468.60;;;428.53;;
20067;SDS011;10194;50.824;7.134;2022-09-17T08:33:45;470.57;;;430.13;;
20067;SDS011;10194;50.824;7.134;2022-09-17T08:36:13;465.30;;;424.80;;
20067;SDS011;10194;50.824;7.134;2022-09-17T08:38:42;467.67;;;427.60;;
20067;SDS011;10194;50.824;7.134;2022-09-17T08:43:39;473.30;;;433.20;;
20067;SDS011;10194;50.824;7.134;2022-09-17T08:46:30;473.03;;;433.03;;
20067;SDS011;10194;50.824;7.134;2022-09-17T08:49:33;474.23;;;434.00;;
20067;SDS011;10194;50.824;7.134;2022-09-17T09:00:10;466.30;;;425.77;;
20067;SDS011;10194;50.824;7.134;2022-09-17T09:05:49;473.10;;;432.83;;
20067;SDS011;10194;50.824;7.134;2022-09-17T09:11:03;470.73;;;430.70;;
20067;SDS011;10194;50.824;7.134;2022-09-17T09:13:35;479.17;;;438.73;;
20067;SDS011;10194;50.824;7.134;2022-09-17T09:16:11;487.43;;;446.13;;
20067;SDS011;10194;50.824;7.134;2022-09-17T09:18:47;474.13;;;433.50;;
20067;SDS011;10194;50.824;7.134;2022-09-17T09:21:26;481.23;;;440.83;;
20067;SDS011;10194;50.824;7.134;2022-09-17T09:23:56;476.13;;;435.70;;
20067;SDS011;10194;50.824;7.134;2022-09-17T09:27:04;476.13;;;435.63;;
20067;SDS011;10194;50.824;7.134;2022-09-17T09:35:30;475.30;;;434.73;;
20067;SDS011;10194;50.824;7.134;2022-09-17T09:38:30;466.00;;;425.50;;
20067;SDS011;10194;50.824;7.134;2022-09-17T09:44:09;456.57;;;416.23;;
20067;SDS011;10194;50.824;7.134;2022-09-17T09:49:43;462.40;;;422.27;;
20067;SDS011;10194;50.824;7.134;2022-09-17T09:52:58;462.10;;;421.17;;
20067;SDS011;10194;50.824;7.134;2022-09-17T09:55:53;462.77;;;422.87;;
20067;SDS011;10194;50.824;7.134;2022-09-17T09:58:34;470.87;;;430.20;;
20067;SDS011;10194;50.824;7.134;2022-09-17T10:01:12;469.87;;;429.07;;
20067;SDS011;10194;50.824;7.134;2022-09-17T10:03:42;465.80;;;426.03;;
20067;SDS011;10194;50.824;7.134;2022-09-17T10:06:10;466.37;;;425.93;;
20067;SDS011;10194;50.824;7.134;2022-09-17T10:08:41;465.20;;;425.30;;
20067;SDS011;10194;50.824;7.134;2022-09-17T10:11:27;464.67;;;424.67;;
20067;SDS011;10194;50.824;7.134;2022-09-17T10:14:13;464.80;;;425.30;;
20067;SDS011;10194;50.824;7.134;2022-09-17T10:16:44;467.00;;;426.60;;
20067;SDS011;10194;50.824;7.134;2022-09-17T10:19:11;462.10;;;422.40;;
20067;SDS011;10194;50.824;7.134;2022-09-17T10:21:43;462.40;;;422.27;;
20067;SDS011;10194;50.824;7.134;2022-09-17T10:26:44;465.77;;;425.77;;
20067;SDS011;10194;50.824;7.134;2022-09-17T10:29:11;466.87;;;426.63;;
20067;SDS011;10194;50.824;7.134;2022-09-17T10:31:52;463.70;;;423.63;;
20067;SDS011;10194;50.824;7.134;2022-09-17T10:34:21;457.80;;;417.47;;
20067;SDS011;10194;50.824;7.134;2022-09-17T10:36:50;455.10;;;415.20;;
20067;SDS011;10194;50.824;7.134;2022-09-17T10:41:57;457.27;;;417.13;;
20067;SDS011;10194;50.824;7.134;2022-09-17T10:44:56;463.03;;;423.13;;
20067;SDS011;10194;50.824;7.134;2022-09-17T10:47:30;457.97;;;417.90;;
20067;SDS011;10194;50.824;7.134;2022-09-17T10:52:48;452.47;;;411.37;;
20067;SDS011;10194;50.824;7.134;2022-09-17T11:00:37;442.60;;;402.50;;
20067;SDS011;10194;50.824;7.134;2022-09-17T11:26:29;450.40;;;410.23;;
20067;SDS011;10194;50.824;7.134;2022-09-17T11:32:08;451.63;;;410.43;;
20067;SDS011;10194;50.824;7.134;2022-09-17T11:34:51;439.20;;;399.17;;
20067;SDS011;10194;50.824;7.134;2022-09-17T11:37:36;435.50;;;395.77;;
20067;SDS011;10194;50.824;7.134;2022-09-17T11:40:14;426.07;;;387.13;;
20067;SDS011;10194;50.824;7.134;2022-09-17T11:43:01;427.80;;;387.70;;
20067;SDS011;10194;50.824;7.134;2022-09-17T11:46:02;432.80;;;393.33;;
20067;SDS011;10194;50.824;7.134;2022-09-17T11:48:45;445.90;;;405.50;;
20067;SDS011;10194;50.824;7.134;2022-09-17T11:51:37;439.27;;;399.20;;
20067;SDS011;10194;50.824;7.134;2022-09-17T11:54:39;446.27;;;406.53;;
20067;SDS011;10194;50.824;7.134;2022-09-17T11:57:30;439.93;;;400.27;;
20067;SDS011;10194;50.824;7.134;2022-09-17T12:00:04;436.43;;;396.60;;
20067;SDS011;10194;50.824;7.134;2022-09-17T12:05:18;438.23;;;398.43;;
20067;SDS011;10194;50.824;7.134;2022-09-17T12:07:58;444.73;;;405.73;;
20067;SDS011;10194;50.824;7.134;2022-09-17T12:15:54;459.73;;;420.53;;
20067;SDS011;10194;50.824;7.134;2022-09-17T12:21:46;462.57;;;422.90;;
20067;SDS011;10194;50.824;7.134;2022-09-17T12:24:26;463.97;;;424.27;;
20067;SDS011;10194;50.824;7.134;2022-09-17T12:50:50;455.23;;;416.03;;
20067;SDS011;10194;50.824;7.134;2022-09-17T12:59:57;454.10;;;414.93;;
20067;SDS011;10194;50.824;7.134;2022-09-17T13:06:12;456.67;;;417.73;;
20067;SDS011;10194;50.824;7.134;2022-09-17T13:14:12;458.43;;;419.53;;
20067;SDS011;10194;50.824;7.134;2022-09-17T13:22:45;451.63;;;412.13;;
20067;SDS011;10194;50.824;7.134;2022-09-17T13:25:17;443.93;;;405.53;;
20067;SDS011;10194;50.824;7.134;2022-09-17T13:27:45;443.20;;;404.77;;
20067;SDS011;10194;50.824;7.134;2022-09-17T13:30:19;445.57;;;407.20;;
20067;SDS011;10194;50.824;7.134;2022-09-17T13:32:45;440.93;;;401.67;;
20067;SDS011;10194;50.824;7.134;2022-09-17T13:37:42;440.27;;;402.13;;
20067;SDS011;10194;50.824;7.134;2022-09-17T13:43:04;459.70;;;420.17;;
20067;SDS011;10194;50.824;7.134;2022-09-17T13:48:34;465.07;;;425.50;;
20067;SDS011;10194;50.824;7.134;2022-09-17T13:54:04;464.97;;;425.23;;
20067;SDS011;10194;50.824;7.134;2022-09-17T13:56:34;469.33;;;429.63;;
20067;SDS011;10194;50.824;7.134;2022-09-17T13:59:23;467.13;;;427.40;;
20067;SDS011;10194;50.824;7.134;2022-09-17T14:09:57;465.47;;;426.30;;
20067;SDS011;10194;50.824;7.134;2022-09-17T14:21:15;462.07;;;423.00;;
20067;SDS011;10194;50.824;7.134;2022-09-17T14:23:59;464.50;;;425.33;;
20067;SDS011;10194;50.824;7.134;2022-09-17T14:35:13;465.00;;;425.70;;
20067;SDS011;10194;50.824;7.134;2022-09-17T14:37:59;466.93;;;428.03;;
20067;SDS011;10194;50.824;7.134;2022-09-17T14:40:34;467.70;;;428.10;;
20067;SDS011;10194;50.824;7.134;2022-09-17T14:43:00;466.63;;;427.23;;
20067;SDS011;10194;50.824;7.134;2022-09-17T14:45:31;461.97;;;422.57;;
20067;SDS011;10194;50.824;7.134;2022-09-17T14:53:43;467.13;;;427.63;;
20067;SDS011;10194;50.824;7.134;2022-09-17T14:56:10;461.90;;;422.77;;
20067;SDS011;10194;50.824;7.134;2022-09-17T14:58:40;459.93;;;420.77;;
20067;SDS011;10194;50.824;7.134;2022-09-17T15:01:22;455.87;;;416.10;;
20067;SDS011;10194;50.824;7.134;2022-09-17T15:07:07;469.40;;;429.53;;
20067;SDS011;10194;50.824;7.134;2022-09-17T15:09:35;470.60;;;431.23;;
20067;SDS011;10194;50.824;7.134;2022-09-17T15:12:01;469.90;;;430.43;;
20067;SDS011;10194;50.824;7.134;2022-09-17T15:14:29;475.90;;;436.07;;
20067;SDS011;10194;50.824;7.134;2022-09-17T15:17:02;471.77;;;432.17;;
20067;SDS011;10194;50.824;7.134;2022-09-17T15:25:03;464.90;;;425.73;;
20067;SDS011;10194;50.824;7.134;2022-09-17T15:27:36;459.67;;;420.57;;
20067;SDS011;10194;50.824;7.134;2022-09-17T15:32:47;469.93;;;429.70;;
20067;SDS011;10194;50.824;7.134;2022-09-17T15:35:22;468.23;;;428.83;;
20067;SDS011;10194;50.824;7.134;2022-09-17T15:38:00;461.97;;;423.13;;
20067;SDS011;10194;50.824;7.134;2022-09-17T15:40:43;459.47;;;420.77;;
20067;SDS011;10194;50.824;7.134;2022-09-17T15:45:53;461.40;;;422.17;;
20067;SDS011;10194;50.824;7.134;2022-09-17T15:50:52;459.73;;;420.60;;
20067;SDS011;10194;50.824;7.134;2022-09-17T15:53:25;461.77;;;422.80;;
20067;SDS011;10194;50.824;7.134;2022-09-17T16:08:51;452.40;;;413.90;;
20067;SDS011;10194;50.824;7.134;2022-09-17T16:11:26;451.10;;;412.30;;
20067;SDS011;10194;50.824;7.134;2022-09-17T16:13:56;455.23;;;416.40;;
20067;SDS011;10194;50.824;7.134;2022-09-17T16:16:31;455.90;;;416.90;;
20067;SDS011;10194;50.824;7.134;2022-09-17T16:18:59;454.30;;;415.30;;
20067;SDS011;10194;50.824;7.134;2022-09-17T16:21:25;455.67;;;416.63;;
20067;SDS011;10194;50.824;7.134;2022-09-17T16:23:53;453.83;;;414.90;;
20067;SDS011;10194;50.824;7.134;2022-09-17T16:26:19;459.60;;;420.40;;
20067;SDS011;10194;50.824;7.134;2022-09-17T16:28:50;458.27;;;419.20;;
20067;SDS011;10194;50.824;7.134;2022-09-17T16:31:18;452.90;;;414.20;;
20067;SDS011;10194;50.824;7.134;2022-09-17T16:33:45;460.23;;;420.63;;
20067;SDS011;10194;50.824;7.134;2022-09-17T16:36:10;455.67;;;416.77;;
20067;SDS011;10194;50.824;7.134;2022-09-17T16:38:36;455.33;;;416.17;;
20067;SDS011;10194;50.824;7.134;2022-09-17T16:41:05;454.50;;;415.30;;
20067;SDS011;10194;50.824;7.134;2022-09-17T16:43:31;458.40;;;419.40;;
20067;SDS011;10194;50.824;7.134;2022-09-17T16:48:27;453.37;;;414.10;;
20067;SDS011;10194;50.824;7.134;2022-09-17T16:50:53;451.23;;;412.13;;
20067;SDS011;10194;50.824;7.134;2022-09-17T16:53:18;458.03;;;418.57;;
20067;SDS011;10194;50.824;7.134;2022-09-17T16:55:44;448.33;;;409.63;;
20067;SDS011;10194;50.824;7.134;2022-09-17T16:58:10;455.20;;;415.43;;
20067;SDS011;10194;50.824;7.134;2022-09-17T17:00:36;453.53;;;414.40;;
20067;SDS011;10194;50.824;7.134;2022-09-17T17:03:02;456.67;;;417.30;;
20067;SDS011;10194;50.824;7.134;2022-09-17T17:05:29;455.50;;;415.77;;
20067;SDS011;10194;50.824;7.134;2022-09-17T17:07:55;455.23;;;416.33;;
20067;SDS011;10194;50.824;7.134;2022-09-17T17:10:24;458.73;;;419.33;;
20067;SDS011;10194;50.824;7.134;2022-09-17T17:12:50;516.97;;;464.47;;
20067;SDS011;10194;50.824;7.134;2022-09-17T17:15:16;475.40;;;433.47;;
20067;SDS011;10194;50.824;7.134;2022-09-17T17:17:43;458.40;;;418.33;;
20067;SDS011;10194;50.824;7.134;2022-09-17T17:20:09;455.53;;;416.27;;
20067;SDS011;10194;50.824;7.134;2022-09-17T17:22:38;457.27;;;417.23;;
20067;SDS011;10194;50.824;7.134;2022-09-17T17:25:05;455.40;;;416.13;;
20067;SDS011;10194;50.824;7.134;2022-09-17T17:27:32;456.17;;;416.73;;
20067;SDS011;10194;50.824;7.134;2022-09-17T17:29:58;457.73;;;418.10;;
20067;SDS011;10194;50.824;7.134;2022-09-17T17:32:28;454.20;;;414.80;;
20067;SDS011;10194;50.824;7.134;2022-09-17T17:34:54;455.43;;;416.30;;
20067;SDS011;10194;50.824;7.134;2022-09-17T17:37:20;455.70;;;416.40;;
20067;SDS011;10194;50.824;7.134;2022-09-17T17:39:47;459.13;;;419.67;;
20067;SDS011;10194;50.824;7.134;2022-09-17T17:42:13;466.30;;;426.30;;
20067;SDS011;10194;50.824;7.134;2022-09-17T17:44:39;461.23;;;421.97;;
20067;SDS011;10194;50.824;7.134;2022-09-17T17:47:05;460.23;;;420.63;;
20067;SDS011;10194;50.824;7.134;2022-09-17T17:49:31;462.03;;;422.50;;
20067;SDS011;10194;50.824;7.134;2022-09-17T17:51:58;456.33;;;417.10;;
20067;SDS011;10194;50.824;7.134;2022-09-17T17:54:24;466.33;;;426.23;;
20067;SDS011;10194;50.824;7.134;2022-09-17T17:56:52;467.77;;;427.43;;
20067;SDS011;10194;50.824;7.134;2022-09-17T17:59:18;457.17;;;417.80;;
20067;SDS011;10194;50.824;7.134;2022-09-17T18:01:44;456.10;;;416.40;;
20067;SDS011;10194;50.824;7.134;2022-09-17T18:04:10;467.37;;;427.47;;
20067;SDS011;10194;50.824;7.134;2022-09-17T18:06:36;463.47;;;423.10;;
20067;SDS011;10194;50.824;7.134;2022-09-17T18:09:03;463.00;;;423.40;;
20067;SDS011;10194;50.824;7.134;2022-09-17T18:11:30;462.80;;;423.03;;
20067;SDS011;10194;50.824;7.134;2022-09-17T18:13:57;468.50;;;428.40;;
20067;SDS011;10194;50.824;7.134;2022-09-17T18:16:27;458.90;;;419.47;;
20067;SDS011;10194;50.824;7.134;2022-09-17T18:18:54;464.97;;;424.73;;
20067;SDS011;10194;50.824;7.134;2022-09-17T18:21:22;461.27;;;421.40;;